createdAt,value
2023-03-17T00:06:56.616Z,8.90
2023-03-17T00:13:57.484Z,8.90
2023-03-17T00:20:58.720Z,8.90
2023-03-17T00:27:59.592Z,8.90
2023-03-17T00:35:00.712Z,8.90
2023-03-17T00:42:01.434Z,8.80
2023-03-17T00:56:18.964Z,8.80
2023-03-17T01:03:20.439Z,8.80
2023-03-17T01:10:28.889Z,8.80
2023-03-17T01:17:29.561Z,8.70
2023-03-17T01:24:30.085Z,8.70
2023-03-17T01:31:31.438Z,8.70
2023-03-17T01:38:32.453Z,8.70
2023-03-17T01:46:07.066Z,8.70
2023-03-17T01:53:08.635Z,8.60
2023-03-17T02:00:16.132Z,8.60
2023-03-17T02:07:16.426Z,8.60
2023-03-17T02:14:16.886Z,8.60
2023-03-17T02:21:39.330Z,8.60
2023-03-17T02:28:40.971Z,8.50
2023-03-17T02:35:41.400Z,8.50
2023-03-17T02:42:42.373Z,8.50
2023-03-17T02:49:43.598Z,8.50
2023-03-17T02:56:43.871Z,8.40
2023-03-17T03:03:44.424Z,8.40
2023-03-17T03:10:44.595Z,8.40
2023-03-17T03:17:45.433Z,8.30
2023-03-17T03:24:46.021Z,8.30
2023-03-17T03:31:48.522Z,8.30
2023-03-17T03:38:49.462Z,8.20
2023-03-17T03:45:50.315Z,8.20
2023-03-17T03:52:50.588Z,8.10
2023-03-17T03:59:50.964Z,8.10
2023-03-17T04:06:51.382Z,8.10
2023-03-17T04:13:51.935Z,8.10
2023-03-17T04:20:52.029Z,8.10
2023-03-17T04:27:52.319Z,8.10
2023-03-17T04:34:52.988Z,8.10
2023-03-17T04:41:53.196Z,8.00
2023-03-17T04:48:53.735Z,8.00
2023-03-17T04:55:53.796Z,7.90
2023-03-17T05:02:54.243Z,7.90
2023-03-17T05:09:54.694Z,7.90
2023-03-17T05:16:55.375Z,7.90
2023-03-17T05:23:55.784Z,7.80
2023-03-17T05:30:56.493Z,7.90
2023-03-17T05:37:56.836Z,7.80
2023-03-17T05:44:57.280Z,7.80
2023-03-17T05:51:58.712Z,7.90
2023-03-17T05:59:01.007Z,7.90
2023-03-17T06:06:01.572Z,8.00
2023-03-17T06:13:04.023Z,8.00
2023-03-17T06:20:05.382Z,8.00
2023-03-17T06:27:05.571Z,8.10
2023-03-17T06:34:06.615Z,8.10
2023-03-17T06:41:07.112Z,8.20
2023-03-17T06:48:07.775Z,8.20
2023-03-17T06:55:08.685Z,8.30
2023-03-17T07:02:11.390Z,8.40
2023-03-17T07:09:11.716Z,8.60
2023-03-17T07:16:15.146Z,8.70
2023-03-17T07:23:22.722Z,8.90
2023-03-17T07:30:23.305Z,9.00
2023-03-17T07:37:24.223Z,9.20
2023-03-17T07:44:25.764Z,9.40
2023-03-17T07:51:27.969Z,9.60
2023-03-17T07:58:28.380Z,9.90
2023-03-17T08:05:28.776Z,10.10
2023-03-17T08:12:29.128Z,10.40
2023-03-17T08:19:29.587Z,10.50
2023-03-17T08:26:30.094Z,10.70
2023-03-17T08:33:30.505Z,10.80
2023-03-17T08:40:31.274Z,11.00
2023-03-17T08:47:33.868Z,11.30
2023-03-17T08:54:34.560Z,11.50
2023-03-17T09:01:35.835Z,11.70
2023-03-17T09:08:39.753Z,11.90
2023-03-17T09:15:40.418Z,12.10
2023-03-17T09:22:41.296Z,12.20
2023-03-17T09:29:42.257Z,12.30
2023-03-17T09:36:42.659Z,12.40
2023-03-17T09:43:54.379Z,12.60
2023-03-17T09:51:08.866Z,12.80
2023-03-17T09:58:11.543Z,13.00
2023-03-17T10:05:21.389Z,13.20
2023-03-17T10:12:27.454Z,13.40
2023-03-17T10:19:49.499Z,13.70
2023-03-17T10:26:53.187Z,14.00
2023-03-17T10:33:55.479Z,14.20
2023-03-17T10:41:03.343Z,14.40
2023-03-17T10:48:09.461Z,14.60
2023-03-17T10:55:15.243Z,14.70
2023-03-17T11:02:28.012Z,14.90
2023-03-17T11:09:34.992Z,15.10
2023-03-17T11:16:38.098Z,15.30
2023-03-17T11:23:55.524Z,15.50
2023-03-17T11:31:09.722Z,15.70
2023-03-17T11:38:12.851Z,15.80
2023-03-17T11:45:16.849Z,16.00
2023-03-17T11:52:30.242Z,16.20
2023-03-17T11:59:42.137Z,16.40
2023-03-17T12:06:50.522Z,16.60
2023-03-17T12:14:02.141Z,16.70
2023-03-17T12:21:24.438Z,16.80
2023-03-17T12:28:34.147Z,16.80
2023-03-17T12:35:38.709Z,16.90
2023-03-17T12:43:04.417Z,17.10
2023-03-17T12:50:31.978Z,17.20
2023-03-17T12:57:43.574Z,17.50
2023-03-17T13:04:57.668Z,17.70
2023-03-17T13:12:02.440Z,17.80
2023-03-17T13:19:27.923Z,17.90
2023-03-17T13:27:01.534Z,18.00
2023-03-17T13:34:17.828Z,18.10
2023-03-17T13:41:33.074Z,18.00
2023-03-17T13:48:38.498Z,18.10
2023-03-17T13:55:41.181Z,18.20
2023-03-17T14:02:43.345Z,18.20
2023-03-17T14:09:44.184Z,18.20
2023-03-17T14:16:51.226Z,18.20
2023-03-17T14:24:00.909Z,18.20
2023-03-17T14:31:07.176Z,18.40
2023-03-17T14:38:26.965Z,18.60
2023-03-17T14:45:44.593Z,18.70
2023-03-17T14:52:44.862Z,18.60
2023-03-17T14:59:58.088Z,18.40
2023-03-17T15:07:01.616Z,18.10
2023-03-17T15:14:12.788Z,17.70
2023-03-17T15:21:34.006Z,17.40
2023-03-17T15:28:34.264Z,17.10
2023-03-17T15:35:34.583Z,16.90
2023-03-17T15:42:38.227Z,16.70
2023-03-17T15:49:38.352Z,16.50
2023-03-17T15:56:39.602Z,16.40
2023-03-17T16:03:42.043Z,16.40
2023-03-17T16:10:42.361Z,16.30
2023-03-17T16:17:43.520Z,16.20
2023-03-17T16:24:44.586Z,16.10
2023-03-17T16:31:49.001Z,15.90
2023-03-17T16:38:50.834Z,15.80
2023-03-17T16:45:53.167Z,15.60
2023-03-17T16:52:54.945Z,15.50
2023-03-17T16:59:55.176Z,15.40
2023-03-17T17:06:56.573Z,15.10
2023-03-17T17:13:58.337Z,14.80
2023-03-17T17:20:58.560Z,14.60
2023-03-17T17:27:59.688Z,14.50
2023-03-17T17:35:00.210Z,14.50
2023-03-17T17:42:00.743Z,14.40
2023-03-17T17:49:01.142Z,14.40
2023-03-17T17:56:01.939Z,14.40
2023-03-17T18:03:02.642Z,14.30
2023-03-17T18:10:03.481Z,14.30
2023-03-17T18:17:04.036Z,14.20
2023-03-17T18:24:04.964Z,14.10
2023-03-17T18:31:10.426Z,14.00
2023-03-17T18:38:10.663Z,13.90
2023-03-17T18:45:11.898Z,13.90
2023-03-17T18:52:12.938Z,13.80
2023-03-17T18:59:13.012Z,13.70
2023-03-17T19:06:16.510Z,13.60
2023-03-17T19:13:16.903Z,13.50
2023-03-17T19:20:18.611Z,13.40
2023-03-17T19:27:19.404Z,13.40
2023-03-17T19:34:20.028Z,13.40
2023-03-17T19:41:20.643Z,13.20
2023-03-17T19:48:21.354Z,13.10
2023-03-17T19:55:24.330Z,13.10
2023-03-17T20:02:24.556Z,12.90
2023-03-17T20:09:26.840Z,12.90
2023-03-17T20:16:27.458Z,12.80
2023-03-17T20:23:28.219Z,12.80
2023-03-17T20:30:28.691Z,12.80
2023-03-17T20:37:29.249Z,12.70
2023-03-17T20:44:30.227Z,12.70
2023-03-17T20:51:30.718Z,12.60
2023-03-17T20:58:31.157Z,12.50
2023-03-17T21:05:32.514Z,12.30
2023-03-17T21:12:32.715Z,12.10
2023-03-17T21:19:33.294Z,11.90
2023-03-17T21:26:33.603Z,11.80
2023-03-17T21:33:34.599Z,11.70
2023-03-17T21:40:35.158Z,11.50
2023-03-17T21:47:40.127Z,11.40
2023-03-17T21:54:40.656Z,11.30
2023-03-17T22:01:43.500Z,11.20
2023-03-17T22:08:45.628Z,11.10
2023-03-17T22:15:46.383Z,11.00
2023-03-17T22:22:46.611Z,10.90
2023-03-17T22:29:47.377Z,10.80
2023-03-17T22:36:47.600Z,10.80
2023-03-17T22:43:48.207Z,10.70
2023-03-17T22:50:48.858Z,10.70
2023-03-17T22:57:49.257Z,10.60
2023-03-17T23:04:50.111Z,10.60
2023-03-17T23:11:51.172Z,10.60
2023-03-17T23:18:51.429Z,10.60
2023-03-17T23:25:51.918Z,10.60
2023-03-17T23:32:52.258Z,10.60
2023-03-17T23:39:52.913Z,10.60
2023-03-17T23:46:53.730Z,10.60
2023-03-17T23:53:54.264Z,10.60
